»·PEaware :: FFT2289 KGPI-KGEG

FFT2289 :: KGPI-KGEG

FLIGHT INFORMATION

Flight Status: Arrived
Operator:
Frontier Airlines
More flights by this operator :: More flights under this callsign
Pilot: Anonymous 18910 (18910)
Aircraft: AIRBUS A320
(A320)
More flights by this aircraft type
Origin: KGPI Glacier Park Intl
United States
Destination: KGEG Spokane Intl
United States
More flights between these airports :: More routes between these airports
Route: KILLY1 EYESE CESNO
File this flight plan on PilotEdge
Remarks:
Altitude:
(Current/Filed)
24,000ft
Speed:
(Current/Filed)
430kts
Departed: 23-May-18 08:40 PM
Arrived: 23-May-18 09:08 PM
Distance/Time
Traveled:
138nm/0:28
Distance/Time
To Go:
Arrived

Flight Plot

Page will automatically refresh every two minutes.

Flight plan parsing failed; only flown route is shown


Map Options




Map Legend


Flown Route
Filed Route
Departure Airport
Arrival Airport
Navaid (VOR, NDB)
Fix

Horizontal Profiles

Position Reports

Time Latitude Longitude Heading Altitude Ground
Speed
23-May-18 20:10 48.307198 -114.254058 124 2970ft 0kts
23-May-18 20:11 48.307198 -114.254058 124 2970ft 0kts
23-May-18 20:12 48.307198 -114.254058 124 2970ft 0kts
23-May-18 20:13 48.307198 -114.254058 124 2970ft 0kts
23-May-18 20:14 48.307198 -114.254058 124 2970ft 0kts
23-May-18 20:15 48.307198 -114.254058 124 2970ft 0kts
23-May-18 20:16 48.307198 -114.254058 124 2970ft 0kts
23-May-18 20:17 48.307198 -114.254058 124 2970ft 0kts
23-May-18 20:18 48.307198 -114.254058 124 2970ft 0kts
23-May-18 20:19 48.307198 -114.254058 124 2970ft 0kts
23-May-18 20:20 48.307198 -114.254058 124 2970ft 0kts
23-May-18 20:21 48.307198 -114.254058 124 2970ft 0kts
23-May-18 20:22 48.307198 -114.254058 124 2970ft 0kts
23-May-18 20:23 48.307198 -114.254058 124 2970ft 0kts
23-May-18 20:24 48.307198 -114.254058 124 2970ft 0kts
23-May-18 20:25 48.307198 -114.254058 124 2970ft 0kts
23-May-18 20:26 48.307198 -114.254058 124 2970ft 0kts
23-May-18 20:27 48.307198 -114.254058 124 2970ft 0kts
23-May-18 20:28 48.307198 -114.254058 124 2970ft 0kts
23-May-18 20:29 48.307198 -114.254058 124 2970ft 0kts
23-May-18 20:30 48.307198 -114.254058 124 2970ft 0kts
23-May-18 20:31 48.307292 -114.254231 139 2970ft 2kts
23-May-18 20:32 48.307843 -114.254499 188 2971ft 2kts
23-May-18 20:33 48.308151 -114.254319 216 2972ft 0kts
23-May-18 20:34 48.308150 -114.254319 216 2971ft 0kts
23-May-18 20:35 48.308027 -114.254529 237 2971ft 4kts
23-May-18 20:36 48.309634 -114.254334 36 2972ft 19kts
23-May-18 20:37 48.313726 -114.250035 34 2975ft 19kts
23-May-18 20:38 48.317866 -114.245732 34 2978ft 14kts
23-May-18 20:39 48.318748 -114.246227 297 2978ft 8kts
23-May-18 20:40 48.297531 -114.269035 217 3804ft 169kts
23-May-18 20:41 48.273494 -114.337366 242 6521ft 225kts
23-May-18 20:42 48.237255 -114.431482 221 8997ft 288kts
23-May-18 20:43 48.174378 -114.518923 221 11317ft 345kts
23-May-18 20:44 48.131581 -114.652720 254 12021ft 406kts
23-May-18 20:45 48.103001 -114.814942 253 12030ft 408kts
23-May-18 20:46 48.075062 -114.971702 254 12031ft 409kts
23-May-18 20:47 48.045573 -115.135851 254 12031ft 409kts
23-May-18 20:48 48.015940 -115.299385 254 12190ft 410kts
23-May-18 20:49 47.991576 -115.465753 259 12178ft 411kts
23-May-18 20:50 47.972178 -115.634150 259 12178ft 411kts
23-May-18 20:51 47.954282 -115.787771 259 12177ft 412kts
23-May-18 20:52 47.934592 -115.954764 259 12177ft 412kts
23-May-18 20:53 47.914543 -116.122586 259 12068ft 413kts
23-May-18 20:54 47.895280 -116.281828 259 12039ft 413kts
23-May-18 20:55 47.874847 -116.448663 259 12040ft 414kts
23-May-18 20:56 47.853999 -116.616741 259 12040ft 414kts
23-May-18 20:57 47.834960 -116.767889 258 12053ft 348kts
23-May-18 20:58 47.817181 -116.908195 258 12047ft 346kts
23-May-18 20:59 47.763092 -117.006625 180 12056ft 335kts
23-May-18 21:00 47.673225 -117.006225 179 9480ft 319kts
23-May-18 21:01 47.614758 -117.071035 263 7978ft 262kts
23-May-18 21:02 47.614582 -117.168531 270 7037ft 219kts
23-May-18 21:03 47.614996 -117.251804 270 6128ft 196kts
23-May-18 21:04 47.615542 -117.331412 271 4903ft 185kts
23-May-18 21:05 47.615934 -117.396628 272 4004ft 139kts
23-May-18 21:06 47.616309 -117.452163 273 3333ft 132kts
23-May-18 21:07 47.616717 -117.506009 273 2600ft 131kts
23-May-18 21:08 47.616910 -117.541093 271 2374ft 25kts
23-May-18 21:09 47.618173 -117.541972 46 2368ft 12kts
23-May-18 21:10 47.621980 -117.537132 332 2361ft 12kts
23-May-18 21:11 47.623914 -117.536425 35 2361ft 0kts
23-May-18 21:12 47.623930 -117.536409 35 2361ft 0kts

Navigation Log

Ident Type
Flight plan parsing failed, navigation log unavailable